AirNav   Air Wisconsin pilot careers
 
 340 users online  

42VA Virginia Beach Airport
Virginia Beach, Virginia, USA

GOING TO VIRGINIA BEACH?


FAA INFORMATION EFFECTIVE 29 MARCH 2018

Location

FAA Identifier: 42VA
Lat/Long: 36-40-44.0550N / 076-01-57.9950W
36-40.734250N / 076-01.966583W
36.6789042 / -76.0327764
(estimated)
Elevation: 15 ft. / 5 m (estimated)
Variation: 10W (1990)
From city: 4 miles SE of VIRGINIA BEACH, VA
Time zone: UTC -4 (UTC -5 during Standard Time)
Zip code: 23457

Airport Operations

Airport use: Private use. Permission required prior to landing
Activation date: 04/1993
Control tower: no
ARTCC: WASHINGTON CENTER
FSS: LEESBURG FLIGHT SERVICE STATION
Attendance: UNATNDD
Wind indicator: yes
Segmented circle: no

Airport Communications

WX ASOS at NTU (9 nm N): PHONE DSN 433-3619 or 757-433-3619
WX AWOS-3 at CPK (14 nm W): 123.675 (757-421-0252)
WX ASOS at ORF (15 nm NW): PHONE 757-460-9348
WX AWOS-3 at ONX (17 nm S): 119.775 (252-453-8939)

Nearby radio navigation aids

VOR radial/distance  VOR name  Freq  Var
ORFr155/15.1NORFOLK VORTAC116.9007W
ECGr022/26.2ELIZABETH CITY VOR/DME112.5007W

 
NDB name  Hdg/Dist  Freq  Var  ID
INGLE142/14.332909WOR --- .-.
WOODVILLE037/28.025410WLLW .-.. .-.. .--

Airport Services

Runway Information

Runway 11/29

Dimensions: 4845 x 190 ft. / 1477 x 58 m
Surface: turf, in good condition
RUNWAY 11  RUNWAY 29
Latitude: 36-40.824167N36-40.644333N
Longitude: 076-02.449500W076-01.483667W
Elevation: 10.0 ft.9.0 ft.
Traffic pattern: leftleft

Airport Ownership and Management from official FAA records

Ownership: Privately-owned
Owner: VIRGINIA BEACH ARPT, LLC
4455 SOUTH BLVD
VIRGINIA BEACH, VA 23452
Phone 757-490-3157
Manager: GERALD YAGEN
4455 SOUTH BLVD
VIRGINIA BEACH, VA 23452
Phone 757-490-3157
EXTENSION 500.

Airport Operational Statistics

Aircraft based on the field: 54
Single engine airplanes: 50
Multi engine airplanes: 4
    

Additional Remarks

AWOS - PHONE 757-204-2683, FREQUENCY 119.925

Instrument Procedures

There are no published instrument procedures at 42VA.

Some nearby airports with instrument procedures:

KNTU - Oceana Naval Air Station (Apollo Soucek Field) (9 nm N)
KCPK - Chesapeake Regional Airport (14 nm W)
KORF - Norfolk International Airport (15 nm NW)
KONX - Currituck County Regional Airport (17 nm S)
KNGU - Norfolk Naval Station (Chambers Field) (20 nm NW)
 
Loc | Ops | Rwys | IFR | FBO | Links
Com | Nav | Svcs | Stats | Notes

AirNav Hotels Sweepstakes
 
Area around 42VA (Virginia Beach Airport)
 
Road maps at: MapQuest Bing Google
 
Aerial photo
WARNING: Photo may not be current or correct
Aerial photo of 42VA (Virginia Beach Airport)
Photo by Jerry Yagen
Photo taken 10-Nov-2012
looking east.

Do you have a better or more recent aerial photo of Virginia Beach Airport that you would like to share? If so, please send us your photo.

 
Sectional chart

 
Airport distance calculator
Flying to Virginia Beach Airport? Find the distance to fly.

From to 42VA

Sunrise and sunset
Times for 19-Apr-2018
 Local
(UTC-4)
 Zulu
(UTC)
Morning civil twilight05:5909:59
Sunrise06:2610:26
Sunset19:4123:41
Evening civil twilight20:0800:08

Current date and time
Zulu (UTC)  19-Apr-2018 09:33:24
Local (UTC-4)  19-Apr-2018 05:33:24
 
METAR
KNFE 
5nm W 
190856Z AUTO VRB04KT 10SM CLR 20/09 A2962 RMK AO2 SLP031 T02000094 56008
KNTU 
8nm N 
190856Z 22012KT 10SM CLR 18/09 A2960 RMK AO2 SLP026 T01830094 56007
KCPK 
14nm W 
190915Z AUTO 22006KT 10SM CLR 17/09 A2963 RMK AO2 T01710087
KORF 
16nm NW 
190851Z 22013KT 10SM CLR 17/10 A2960 RMK AO2 SLP021 T01720100 56008
KNGU 
18nm NW 
190859Z 21010KT 10SM CLR 18/09 A2961 RMK AO2 SLP028 T01780089 56004
TAF
KNTU 
8nm N 
1908/2007 20010G15KT 9999 SKC 510009 510903 QNH2959INS FM190900 23012KT 9999 FEW035 SCT060 510009 510903 QNH2962INS FM191400 27015G20KT 9999 FEW035 BKN060 510009 510903 QNH2970INS TEMPO 1914/1918 28019G35KT 6000 SHRA FEW035 BKN050 BECMG 1922/2000 33018G25KT 9999 NSW FEW050 SCT100 510009 510903 QNH2989INS BECMG 2003/2005 35020G30KT 510009 510903 QNH3000INS T11/1911Z T23/1920Z COR 0802 FN00170
KORF 
16nm NW 
190520Z 1906/2006 21010KT P6SM SKC WS020/24040KT FM191100 24011KT P6SM SKC FM191600 27017G27KT P6SM SCT090 FM192200 31017G27KT P6SM SKC
KNGU 
18nm NW 
1908/2007 19010G20KT 9999 SKC 510009 510903 QNH2960INS FM190900 23012KT 9999 FEW035 SCT060 510009 510903 QNH2962INS FM191400 27015G20KT 9999 FEW035 BKN060 510009 510903 QNH2970INS TEMPO 1914/1918 28019G35KT 6000 SHRA FEW035 BKN050 BECMG 1922/2000 33018G25KT 9999 NSW FEW050 SCT100 510009 510903 QNH2989INS BECMG 2003/2005 35020G30KT 510009 510903 QNH3000INS T11/1911Z T23/1920Z COR 0802 FN00170
NOTAMs
Click for the latest NOTAMs
NOTAMs are issued by the DoD/FAA and will open in a separate window not controlled by AirNav.

 

 
 

Would you like to see your business listed on this page?

 If your business provides an interesting product or service to pilots, flight crews, aircraft, or users of the Virginia Beach Airport, you should consider listing it here.  To start the listing process, click on the button below
 
Add a business
 

Other Pages about Virginia Beach Airport

www.vbairport.com
Military Aviation Museum
www.fighterfactory.com
 
Update a link
 
Copyright © AirNav, LLC. All rights reserved. Privacy Policy  Contact